Time;durP1;ratioP1;P1;durP2;ratioP2;P2;SDS_P1;SDS_P2;PMS_P1;PMS_P2;Temp;Humidity;BMP_temperature;BMP_pressure;BME280_temperature;BME280_humidity;BME280_pressure;Samples;Min_cycle;Max_cycle;Signal;HPM_P1;HPM_P2
2023/04/02 00:01:20;;;;;;;0.52;0.05;;;9.70;80.40;;;;;;4971754;28;92540;-71
2023/04/02 00:03:52;;;;;;;0.93;0.03;;;9.80;80.10;;;;;;4979110;28;92399;-71
2023/04/02 00:06:33;;;;;;;0.30;0.00;;;9.90;79.40;;;;;;4970095;28;94122;-71
2023/04/02 00:09:14;;;;;;;0.70;0.00;;;9.90;78.60;;;;;;4962963;28;92371;-70
2023/04/02 00:11:40;;;;;;;4.35;0.00;;;10.00;78.40;;;;;;4958532;28;92638;-72
2023/04/02 00:14:15;;;;;;;0.30;0.00;;;10.00;78.30;;;;;;4974262;28;93102;-70
2023/04/02 00:16:41;;;;;;;0.10;0.00;;;10.00;78.10;;;;;;4969263;28;92783;-71
2023/04/02 00:19:13;;;;;;;0.30;0.00;;;10.00;77.70;;;;;;4977175;28;93190;-71
2023/04/02 00:21:43;;;;;;;2.10;0.00;;;10.00;77.90;;;;;;4995054;28;92293;-71
2023/04/02 00:24:18;;;;;;;1.42;0.00;;;9.90;78.00;;;;;;4975452;28;92675;-73
2023/04/02 00:26:52;;;;;;;0.68;0.00;;;9.90;77.70;;;;;;4979290;28;95356;-71
2023/04/02 00:29:19;;;;;;;0.40;0.00;;;9.90;77.80;;;;;;4975582;28;92980;-71
2023/04/02 00:31:48;;;;;;;0.25;0.00;;;9.90;77.80;;;;;;4975185;28;93221;-71
2023/04/02 00:34:29;;;;;;;0.57;0.00;;;9.90;77.60;;;;;;4975801;28;92598;-71
2023/04/02 00:36:55;;;;;;;1.20;0.00;;;9.90;77.60;;;;;;4973779;28;93121;-70
2023/04/02 00:39:27;;;;;;;0.68;0.00;;;9.80;78.80;;;;;;4976527;28;92814;-71
2023/04/02 00:42:04;;;;;;;0.30;0.10;;;9.70;79.30;;;;;;4994849;28;92530;-71
2023/04/02 00:44:41;;;;;;;1.58;0.03;;;9.60;79.90;;;;;;4976082;28;92547;-71
2023/04/02 00:47:26;;;;;;;0.73;0.05;;;9.60;79.60;;;;;;4974559;28;93236;-71
2023/04/02 00:50:19;;;;;;;0.90;0.00;;;9.50;79.60;;;;;;4976668;28;93312;-71
2023/04/02 00:52:48;;;;;;;1.95;0.00;;;9.40;79.60;;;;;;4979603;28;92779;-70
2023/04/02 00:55:33;;;;;;;0.77;0.10;;;9.40;79.50;;;;;;4990488;28;92329;-71
2023/04/02 00:58:00;;;;;;;0.30;0.03;;;9.30;79.70;;;;;;4975091;28;94077;-71
2023/04/02 01:00:34;;;;;;;0.60;0.10;;;9.30;80.40;;;;;;4972431;28;93816;-71
2023/04/02 01:03:28;;;;;;;1.25;0.00;;;9.20;80.40;;;;;;4978809;28;92106;-71
2023/04/02 01:06:11;;;;;;;0.82;0.00;;;9.10;80.90;;;;;;4974721;28;92576;-71
2023/04/02 01:09:05;;;;;;;0.77;0.00;;;9.10;81.10;;;;;;4979154;28;92601;-72
2023/04/02 01:11:50;;;;;;;1.67;0.00;;;9.10;81.20;;;;;;4974007;28;93094;-72
2023/04/02 01:14:36;;;;;;;1.23;0.20;;;9.10;81.70;;;;;;4973379;28;92264;-71
2023/04/02 01:17:01;;;;;;;0.35;0.00;;;9.00;82.60;;;;;;4979213;28;91376;-70
2023/04/02 01:19:46;;;;;;;0.50;0.00;;;9.00;83.30;;;;;;4994879;28;93040;-71
2023/04/02 01:22:36;;;;;;;0.55;0.10;;;9.00;82.50;;;;;;4972029;28;92940;-71
2023/04/02 01:25:05;;;;;;;1.08;0.10;;;9.10;82.90;;;;;;4966235;28;93347;-71
2023/04/02 01:27:47;;;;;;;0.55;0.10;;;9.20;82.90;;;;;;4985500;28;92155;-72
2023/04/02 01:30:14;;;;;;;0.75;0.03;;;9.20;82.60;;;;;;4974873;28;93274;-71
2023/04/02 01:32:42;;;;;;;1.30;0.00;;;9.20;82.80;;;;;;4980744;28;93042;-71
2023/04/02 01:35:09;;;;;;;0.40;0.10;;;9.20;82.70;;;;;;4990957;28;92205;-71
2023/04/02 01:37:55;;;;;;;0.60;0.10;;;9.20;83.10;;;;;;4975117;28;92327;-72
2023/04/02 01:40:35;;;;;;;1.23;0.30;;;9.30;82.90;;;;;;4972089;28;93617;-71
2023/04/02 01:43:16;;;;;;;3.72;0.20;;;9.30;82.80;;;;;;4972712;28;93680;-71
2023/04/02 01:45:42;;;;;;;1.50;0.32;;;9.20;83.20;;;;;;4975537;28;92417;-71
2023/04/02 01:48:23;;;;;;;2.67;0.40;;;9.20;83.40;;;;;;4967127;28;92629;-71
2023/04/02 01:50:53;;;;;;;0.63;0.10;;;9.20;83.70;;;;;;4982554;28;94680;-72
2023/04/02 01:53:21;;;;;;;0.90;0.13;;;9.10;83.70;;;;;;4972889;28;93221;-70
2023/04/02 01:55:59;;;;;;;2.35;0.10;;;9.20;83.90;;;;;;4985921;28;92212;-71
2023/04/02 01:58:30;;;;;;;0.57;0.10;;;9.20;83.90;;;;;;4993760;28;92464;-71
2023/04/02 02:01:09;;;;;;;1.95;0.10;;;9.20;84.10;;;;;;4979346;28;93379;-70
2023/04/02 02:03:36;;;;;;;0.57;0.08;;;9.20;84.10;;;;;;4981898;28;93033;-72
2023/04/02 02:06:03;;;;;;;1.13;0.10;;;9.20;84.20;;;;;;4967980;28;92484;-71
2023/04/02 02:08:51;;;;;;;1.25;0.10;;;9.20;84.70;;;;;;4975183;28;91680;-72
2023/04/02 02:11:20;;;;;;;0.85;0.13;;;9.10;85.00;;;;;;4964344;28;92759;-71
2023/04/02 02:14:13;;;;;;;2.10;0.20;;;9.10;85.10;;;;;;4979683;28;92790;-70
2023/04/02 02:16:42;;;;;;;2.40;0.20;;;9.00;85.40;;;;;;4976825;28;93369;-71
2023/04/02 02:19:40;;;;;;;1.20;0.10;;;9.00;85.90;;;;;;4992569;28;92402;-71
2023/04/02 02:22:12;;;;;;;1.27;0.10;;;9.00;85.80;;;;;;4978256;28;92895;-71
2023/04/02 02:24:38;;;;;;;1.67;0.50;;;9.10;85.50;;;;;;4984984;28;92574;-71
2023/04/02 02:27:10;;;;;;;0.75;0.20;;;9.10;85.40;;;;;;4991097;28;92881;-71
2023/04/02 02:29:39;;;;;;;2.03;0.20;;;9.10;86.20;;;;;;4991956;28;92513;-71
2023/04/02 02:32:08;;;;;;;1.00;0.20;;;9.00;86.50;;;;;;4995853;28;95114;-71
2023/04/02 02:34:41;;;;;;;2.15;0.20;;;8.90;86.80;;;;;;4997218;28;92075;-70
2023/04/02 02:37:35;;;;;;;1.10;0.20;;;9.00;86.90;;;;;;4982765;28;92549;-70
2023/04/02 02:40:07;;;;;;;1.02;0.17;;;9.00;86.50;;;;;;4972418;28;93984;-72
2023/04/02 02:42:46;;;;;;;1.15;0.20;;;9.10;86.00;;;;;;4980028;28;95033;-70
2023/04/02 02:45:16;;;;;;;1.45;0.15;;;9.10;85.80;;;;;;4985545;28;94415;-71
2023/04/02 02:47:43;;;;;;;2.00;0.20;;;9.10;86.00;;;;;;4977616;28;92504;-72
2023/04/02 02:50:22;;;;;;;2.65;0.20;;;9.10;86.10;;;;;;4990118;28;92485;-71
2023/04/02 02:52:57;;;;;;;1.30;0.13;;;9.10;86.10;;;;;;4996467;28;92676;-71
2023/04/02 02:55:31;;;;;;;1.58;0.20;;;9.10;86.00;;;;;;4986795;28;93089;-72
2023/04/02 02:58:09;;;;;;;1.00;0.20;;;9.10;86.50;;;;;;4968796;28;92327;-71
2023/04/02 03:00:36;;;;;;;1.10;0.20;;;9.00;86.70;;;;;;4976362;28;91938;-72
2023/04/02 03:03:11;;;;;;;3.55;0.22;;;9.00;86.70;;;;;;4976799;28;93311;-71
2023/04/02 03:05:39;;;;;;;1.23;0.20;;;9.00;87.20;;;;;;4972140;28;92649;-70
2023/04/02 03:08:10;;;;;;;3.20;0.20;;;8.90;87.10;;;;;;4970383;28;93483;-71
2023/04/02 03:10:58;;;;;;;3.28;0.20;;;8.90;87.10;;;;;;4976298;28;92581;-71
2023/04/02 03:13:35;;;;;;;1.33;0.15;;;8.90;87.60;;;;;;4974122;28;92734;-71
2023/04/02 03:16:33;;;;;;;1.45;0.20;;;8.90;87.20;;;;;;4970178;28;92467;-70
2023/04/02 03:19:14;;;;;;;0.88;0.20;;;8.90;87.00;;;;;;4966544;28;92338;-71
2023/04/02 03:22:12;;;;;;;1.35;0.10;;;8.90;87.10;;;;;;4976753;28;92643;-71
2023/04/02 03:25:02;;;;;;;1.30;0.20;;;8.80;86.80;;;;;;4991072;28;92065;-71
2023/04/02 03:27:33;;;;;;;2.30;0.20;;;8.80;86.90;;;;;;4996664;28;92388;-72
2023/04/02 03:30:11;;;;;;;2.15;0.20;;;8.80;87.10;;;;;;4975954;28;92508;-70
2023/04/02 03:32:41;;;;;;;1.60;0.13;;;8.80;87.40;;;;;;4989307;28;92439;-71
2023/04/02 03:35:23;;;;;;;1.05;0.20;;;8.80;87.30;;;;;;4993926;28;94209;-71
2023/04/02 03:38:00;;;;;;;1.80;0.20;;;8.90;87.40;;;;;;4992414;28;93240;-70
2023/04/02 03:40:57;;;;;;;2.00;0.30;;;8.90;87.00;;;;;;4986714;28;92480;-72
2023/04/02 03:43:25;;;;;;;1.25;0.20;;;9.00;87.00;;;;;;4976386;28;92429;-71
2023/04/02 03:45:58;;;;;;;3.83;0.28;;;9.00;86.90;;;;;;4979637;28;92666;-71
2023/04/02 03:48:39;;;;;;;1.42;0.20;;;9.00;86.90;;;;;;4964796;28;92458;-71
2023/04/02 03:51:13;;;;;;;1.73;0.20;;;9.00;87.10;;;;;;4993392;28;92509;-71
2023/04/02 03:53:38;;;;;;;4.63;0.35;;;9.00;87.20;;;;;;4982986;28;91840;-71
2023/04/02 03:56:06;;;;;;;1.05;0.20;;;9.00;87.10;;;;;;4977520;28;93177;-71
2023/04/02 03:58:45;;;;;;;1.33;0.30;;;9.00;86.90;;;;;;4991280;28;92817;-72
2023/04/02 04:01:17;;;;;;;0.70;0.10;;;9.10;86.70;;;;;;4981610;28;93338;-71
2023/04/02 04:03:52;;;;;;;0.90;0.10;;;9.00;86.30;;;;;;4973048;28;92486;-72
2023/04/02 04:06:28;;;;;;;1.15;0.20;;;9.10;86.40;;;;;;4977350;28;93210;-70
2023/04/02 04:09:08;;;;;;;1.20;0.10;;;9.10;86.40;;;;;;4972698;28;93049;-70
2023/04/02 04:11:38;;;;;;;0.85;0.10;;;9.10;86.10;;;;;;4983000;28;92650;-70
2023/04/02 04:14:19;;;;;;;0.85;0.10;;;9.00;86.20;;;;;;4975826;28;92310;-70
2023/04/02 04:16:54;;;;;;;2.53;0.10;;;9.00;86.40;;;;;;4990537;28;93216;-70
2023/04/02 04:19:31;;;;;;;1.52;0.10;;;9.10;86.10;;;;;;4972651;28;92327;-71
2023/04/02 04:22:18;;;;;;;0.70;0.10;;;9.10;85.90;;;;;;4963835;28;92844;-70
2023/04/02 04:24:46;;;;;;;1.40;0.10;;;9.10;86.10;;;;;;4971735;28;92395;-70
2023/04/02 04:27:22;;;;;;;0.65;0.10;;;9.00;85.50;;;;;;4955717;28;94217;-70
2023/04/02 04:29:48;;;;;;;;;;;9.00;85.60;;;;;;4978717;28;93762;-71
2023/04/02 04:32:32;;;;;;;0.43;0.03;;;9.10;85.80;;;;;;4989431;28;92460;-70
2023/04/02 04:35:18;;;;;;;0.60;0.10;;;9.10;85.40;;;;;;4977056;28;92504;-70
2023/04/02 04:37:48;;;;;;;0.70;0.10;;;9.20;85.00;;;;;;4970548;28;93158;-70
2023/04/02 04:40:15;;;;;;;1.10;0.10;;;9.20;84.70;;;;;;4977085;28;93981;-71
2023/04/02 04:42:42;;;;;;;1.08;0.10;;;9.20;84.80;;;;;;4987961;28;92161;-70
2023/04/02 04:45:23;;;;;;;1.08;0.10;;;9.20;84.60;;;;;;4982668;28;91895;-71
2023/04/02 04:47:55;;;;;;;0.57;0.10;;;9.30;84.60;;;;;;4991764;28;92553;-71
2023/04/02 04:50:48;;;;;;;1.30;0.13;;;9.30;84.40;;;;;;4991874;28;93213;-71
2023/04/02 04:53:24;;;;;;;1.40;0.15;;;9.30;84.80;;;;;;4986924;28;93601;-71
2023/04/02 04:55:58;;;;;;;2.55;0.10;;;9.30;84.50;;;;;;4965804;28;92915;-71
2023/04/02 04:58:52;;;;;;;1.63;0.13;;;9.20;85.40;;;;;;4975342;28;92618;-71
2023/04/02 05:01:55;;;;;;;0.93;0.20;;;9.20;85.60;;;;;;4972247;28;93784;-71
2023/04/02 05:04:34;;;;;;;1.63;0.15;;;9.10;85.60;;;;;;4961596;28;92275;-72
2023/04/02 05:07:24;;;;;;;0.50;0.10;;;9.00;86.70;;;;;;4966914;28;92511;-68
2023/04/02 05:09:50;;;;;;;0.80;0.20;;;8.90;86.70;;;;;;4975035;28;93641;-69
2023/04/02 05:12:40;;;;;;;1.55;0.20;;;8.90;87.70;;;;;;4969530;28;92774;-70
2023/04/02 05:15:30;;;;;;;0.77;0.20;;;8.90;87.70;;;;;;4975353;28;92634;-69
2023/04/02 05:17:58;;;;;;;1.33;0.30;;;8.80;87.60;;;;;;4974364;28;92482;-70
2023/04/02 05:20:47;;;;;;;0.80;0.20;;;9.00;87.80;;;;;;4961392;28;94492;-69
2023/04/02 05:23:26;;;;;;;1.00;0.17;;;9.00;87.50;;;;;;4981160;28;94594;-71
2023/04/02 05:26:14;;;;;;;1.13;0.25;;;9.00;88.20;;;;;;4958669;28;94326;-72
2023/04/02 05:28:59;;;;;;;2.83;0.20;;;9.00;87.50;;;;;;4969104;28;92631;-73
2023/04/02 05:31:34;;;;;;;3.00;0.40;;;9.10;87.50;;;;;;4964750;28;93855;-71
2023/04/02 05:34:01;;;;;;;2.35;0.32;;;9.10;87.50;;;;;;4968248;28;92739;-70
2023/04/02 05:36:28;;;;;;;3.47;0.30;;;9.20;87.30;;;;;;4958634;28;94045;-71
2023/04/02 05:38:56;;;;;;;1.63;0.30;;;9.20;87.40;;;;;;4958927;28;93119;-72
2023/04/02 05:41:35;;;;;;;2.72;0.40;;;9.20;87.60;;;;;;4959107;28;93725;-71
2023/04/02 05:44:28;;;;;;;2.05;0.38;;;9.20;88.00;;;;;;4968317;28;94179;-71
2023/04/02 05:47:00;;;;;;;3.30;0.38;;;9.20;87.60;;;;;;4962085;28;94756;-71
2023/04/02 05:49:44;;;;;;;2.17;0.60;;;9.20;87.50;;;;;;4965840;28;92632;-71
2023/04/02 05:52:22;;;;;;;2.17;0.40;;;9.20;88.20;;;;;;4967656;28;93622;-71
2023/04/02 05:55:21;;;;;;;1.63;0.32;;;9.20;88.00;;;;;;4968002;28;92718;-71
2023/04/02 05:57:59;;;;;;;1.95;0.38;;;9.20;88.30;;;;;;4967224;28;92552;-72
2023/04/02 06:00:50;;;;;;;1.60;0.40;;;9.30;87.60;;;;;;4973046;28;92293;-71
2023/04/02 06:03:26;;;;;;;2.45;0.50;;;9.40;86.90;;;;;;4965151;28;93460;-72
2023/04/02 06:05:54;;;;;;;1.75;0.25;;;9.50;86.50;;;;;;4991181;28;92814;-74
2023/04/02 06:08:30;;;;;;;2.17;0.40;;;9.50;86.40;;;;;;4989950;28;92406;-69
2023/04/02 06:11:01;;;;;;;1.50;0.32;;;9.60;86.10;;;;;;4960356;28;92776;-70
2023/04/02 06:13:27;;;;;;;1.95;0.30;;;9.70;85.90;;;;;;4984115;28;94743;-71
2023/04/02 06:15:53;;;;;;;2.35;0.55;;;9.70;86.00;;;;;;4981478;28;93258;-70
2023/04/02 06:18:21;;;;;;;1.55;0.40;;;9.80;85.80;;;;;;4973304;28;93753;-71
2023/04/02 06:20:47;;;;;;;2.13;0.45;;;9.90;85.70;;;;;;4957939;28;93524;-72
2023/04/02 06:23:18;;;;;;;1.88;0.50;;;10.00;85.30;;;;;;4956758;28;94132;-72
2023/04/02 06:25:59;;;;;;;2.00;0.63;;;10.00;85.10;;;;;;4956366;28;94552;-73
2023/04/02 06:28:46;;;;;;;2.50;0.63;;;10.10;85.10;;;;;;4954459;28;93838;-71
2023/04/02 06:31:33;;;;;;;2.83;0.65;;;10.20;85.00;;;;;;4953366;28;92083;-69
2023/04/02 06:33:59;;;;;;;3.97;0.50;;;10.30;84.60;;;;;;4955776;28;94216;-66
2023/04/02 06:36:27;;;;;;;1.67;0.40;;;10.30;84.60;;;;;;4957048;28;93605;-71
2023/04/02 06:38:57;;;;;;;2.08;0.57;;;10.40;84.90;;;;;;4955090;28;94232;-70
2023/04/02 06:41:24;;;;;;;2.67;0.20;;;10.40;84.10;;;;;;4951990;28;94648;-70
2023/04/02 06:43:55;;;;;;;1.25;0.10;;;10.40;83.30;;;;;;4959210;28;94469;-70
2023/04/02 06:46:45;;;;;;;0.60;0.10;;;10.50;82.90;;;;;;4966663;28;94153;-71
2023/04/02 06:49:33;;;;;;;1.85;0.10;;;10.60;82.20;;;;;;4963972;28;93567;-67
2023/04/02 06:52:01;;;;;;;1.23;0.20;;;10.60;81.20;;;;;;4964409;28;92937;-70
2023/04/02 06:54:26;;;;;;;1.65;0.20;;;10.70;81.20;;;;;;4968232;28;92669;-71
2023/04/02 06:56:55;;;;;;;1.90;0.30;;;10.90;81.10;;;;;;4966693;28;92804;-70
2023/04/02 06:59:21;;;;;;;1.35;0.30;;;11.00;81.30;;;;;;4963164;28;93732;-70
2023/04/02 07:02:07;;;;;;;1.35;0.40;;;11.00;81.50;;;;;;4960493;28;93236;-69
2023/04/02 07:04:33;;;;;;;1.70;0.40;;;11.20;80.50;;;;;;4970721;28;95719;-71
2023/04/02 07:06:59;;;;;;;1.83;0.32;;;11.50;80.20;;;;;;4962915;28;94060;-71
2023/04/02 07:09:25;;;;;;;1.73;0.38;;;11.80;79.40;;;;;;4968566;28;94284;-70
2023/04/02 07:11:51;;;;;;;1.40;0.30;;;12.20;79.50;;;;;;4966463;28;92652;-71
2023/04/02 07:14:16;;;;;;;0.85;0.20;;;12.70;76.90;;;;;;4960319;28;92995;-71
2023/04/02 07:16:43;;;;;;;1.70;0.20;;;13.10;76.10;;;;;;4954575;28;93083;-72
2023/04/02 07:19:27;;;;;;;1.08;0.13;;;13.60;72.40;;;;;;4955620;28;92928;-70
2023/04/02 07:21:52;;;;;;;1.13;0.20;;;14.00;71.50;;;;;;4981054;28;91663;-71
2023/04/02 07:24:18;;;;;;;2.45;0.50;;;14.60;70.00;;;;;;4968920;28;93285;-72
2023/04/02 07:26:46;;;;;;;3.17;0.63;;;15.10;68.50;;;;;;4968107;28;92442;-71
2023/04/02 07:29:16;;;;;;;2.13;0.50;;;17.00;64.90;;;;;;4977375;28;94647;-71
2023/04/02 07:31:42;;;;;;;1.83;0.43;;;20.10;58.70;;;;;;4974434;28;92995;-74
2023/04/02 07:34:09;;;;;;;1.15;0.30;;;21.80;52.10;;;;;;4977329;28;93196;-71
2023/04/02 07:36:34;;;;;;;1.10;0.35;;;21.00;50.80;;;;;;4970534;28;93318;-70
2023/04/02 07:39:01;;;;;;;1.35;0.30;;;20.40;54.10;;;;;;4970901;28;93723;-70
2023/04/02 07:41:27;;;;;;;1.13;0.55;;;21.00;52.10;;;;;;4973414;28;92825;-70
2023/04/02 07:43:52;;;;;;;1.92;0.40;;;22.10;51.10;;;;;;4971573;28;92606;-72
2023/04/02 07:46:19;;;;;;;1.05;0.35;;;24.30;46.80;;;;;;4961398;28;92736;-70
2023/04/02 07:48:45;;;;;;;2.00;0.40;;;24.10;45.40;;;;;;4960463;28;92178;-70
2023/04/02 07:51:15;;;;;;;1.92;0.75;;;23.50;46.20;;;;;;4966421;28;92145;-70
2023/04/02 07:53:41;;;;;;;1.60;0.77;;;24.60;46.30;;;;;;4963786;28;94463;-71
2023/04/02 07:56:07;;;;;;;1.65;0.70;;;25.90;43.00;;;;;;4962286;28;93312;-70
2023/04/02 07:58:33;;;;;;;2.22;1.02;;;27.40;42.50;;;;;;4958519;28;93573;-70
2023/04/02 08:01:00;;;;;;;3.10;1.02;;;29.10;40.80;;;;;;4970780;28;94402;-71
2023/04/02 08:03:26;;;;;;;1.92;0.70;;;30.50;37.20;;;;;;4959306;28;94644;-71
2023/04/02 08:05:54;;;;;;;1.83;1.40;;;32.00;36.30;;;;;;4969216;28;94223;-72
2023/04/02 08:08:21;;;;;;;1.83;1.33;;;33.10;34.00;;;;;;4967978;28;94595;-72
2023/04/02 08:10:48;;;;;;;1.52;1.17;;;34.20;34.50;;;;;;4965299;28;91853;-74
2023/04/02 08:13:16;;;;;;;1.30;0.82;;;34.70;31.30;;;;;;4966341;28;93281;-71
2023/04/02 08:15:42;;;;;;;1.70;0.93;;;33.50;32.70;;;;;;4962061;28;94148;-71
2023/04/02 08:18:08;;;;;;;1.83;1.05;;;32.40;33.40;;;;;;4971738;28;95078;-71
2023/04/02 08:20:34;;;;;;;1.63;0.73;;;32.30;32.80;;;;;;4967868;28;93919;-71
2023/04/02 08:23:00;;;;;;;1.90;1.30;;;31.80;32.30;;;;;;4951507;28;93214;-72
2023/04/02 08:25:26;;;;;;;1.10;0.82;;;32.20;32.50;;;;;;4951415;28;94169;-72
2023/04/02 08:27:52;;;;;;;1.35;0.93;;;32.20;32.70;;;;;;4950664;28;93098;-72
2023/04/02 08:30:18;;;;;;;1.23;1.10;;;31.40;32.40;;;;;;4949459;28;94056;-72
2023/04/02 08:32:44;;;;;;;1.75;0.77;;;32.10;34.10;;;;;;4949996;28;94760;-71
2023/04/02 08:35:13;;;;;;;1.40;0.82;;;33.20;31.90;;;;;;4951269;28;92857;-70
2023/04/02 08:37:40;;;;;;;1.05;0.63;;;32.10;32.50;;;;;;4951663;28;93970;-72
2023/04/02 08:40:07;;;;;;;1.30;0.77;;;29.70;34.30;;;;;;4952933;28;94126;-70
2023/04/02 08:43:10;;;;;;;1.02;0.38;;;27.50;35.00;;;;;;4951355;28;95252;-70
2023/04/02 08:45:59;;;;;;;1.30;0.52;;;25.60;37.70;;;;;;4951670;28;94228;-70
2023/04/02 08:48:25;;;;;;;1.33;0.30;;;24.30;39.30;;;;;;4949276;28;94082;-70
2023/04/02 08:50:51;;;;;;;0.95;0.32;;;23.00;41.80;;;;;;4949943;28;93240;-71
2023/04/02 08:53:22;;;;;;;1.27;0.30;;;22.50;42.30;;;;;;4947297;28;94550;-70
2023/04/02 08:56:16;;;;;;;1.00;0.20;;;22.50;42.70;;;;;;4951703;28;94275;-69
2023/04/02 08:58:46;;;;;;;0.90;0.30;;;22.60;41.80;;;;;;4949153;28;94756;-71
2023/04/02 09:01:31;;;;;;;1.20;0.80;;;22.10;42.30;;;;;;4945741;28;92970;-71
2023/04/02 09:03:58;;;;;;;0.90;0.22;;;21.70;43.30;;;;;;4947081;28;93978;-70
2023/04/02 09:06:26;;;;;;;1.52;0.50;;;21.80;44.80;;;;;;4947654;28;93750;-71
2023/04/02 09:08:53;;;;;;;1.30;0.43;;;23.50;43.40;;;;;;4950068;28;95118;-69
2023/04/02 09:11:26;;;;;;;1.67;0.30;;;25.60;40.90;;;;;;4946545;28;93994;-70
2023/04/02 09:14:01;;;;;;;2.10;1.05;;;26.20;38.30;;;;;;4948014;28;93157;-70
2023/04/02 09:16:43;;;;;;;1.60;0.40;;;26.30;38.00;;;;;;4944854;28;95575;-71
2023/04/02 09:19:32;;;;;;;0.90;0.20;;;25.30;39.00;;;;;;4958530;28;94106;-70
2023/04/02 09:22:23;;;;;;;1.73;0.40;;;24.40;40.90;;;;;;4966319;28;92924;-69
2023/04/02 09:25:03;;;;;;;0.73;0.10;;;23.20;43.10;;;;;;4968340;28;92556;-69
2023/04/02 09:27:31;;;;;;;1.25;0.10;;;21.90;44.40;;;;;;4971513;28;93234;-70
2023/04/02 09:30:05;;;;;;;4.05;0.47;;;20.80;46.50;;;;;;4975740;28;92589;-70
2023/04/02 09:32:51;;;;;;;1.27;0.20;;;19.90;48.10;;;;;;4964246;28;93806;-68
2023/04/02 09:35:22;;;;;;;1.05;0.10;;;19.20;49.50;;;;;;4962986;28;97066;-70
2023/04/02 09:38:15;;;;;;;1.05;0.17;;;18.80;50.40;;;;;;4967573;28;93341;-71
2023/04/02 09:40:57;;;;;;;0.73;0.10;;;18.40;50.20;;;;;;4969346;28;92174;-71
2023/04/02 09:43:31;;;;;;;2.15;0.10;;;18.10;50.50;;;;;;4968570;28;94556;-71
2023/04/02 09:46:21;;;;;;;0.90;0.10;;;18.00;51.90;;;;;;4972850;28;93135;-69
2023/04/02 09:48:54;;;;;;;1.05;0.20;;;18.10;50.70;;;;;;4974401;28;95507;-71
2023/04/02 09:51:23;;;;;;;2.33;0.20;;;18.10;51.30;;;;;;4972913;28;92655;-71
2023/04/02 09:54:11;;;;;;;1.13;0.20;;;18.30;50.80;;;;;;4953786;28;93477;-74
2023/04/02 09:56:38;;;;;;;1.52;0.10;;;19.20;50.80;;;;;;4951950;28;94903;-72
2023/04/02 09:59:16;;;;;;;0.93;0.20;;;22.10;45.70;;;;;;4951366;28;93636;-72
2023/04/02 10:01:44;;;;;;;3.03;0.30;;;22.20;45.00;;;;;;4948942;28;95124;-73
2023/04/02 10:04:43;;;;;;;1.20;0.30;;;22.20;45.60;;;;;;4948707;28;94348;-73
2023/04/02 10:07:49;;;;;;;0.52;0.22;;;22.30;43.80;;;;;;4950119;28;93895;-72
2023/04/02 10:10:37;;;;;;;0.77;0.17;;;22.60;43.70;;;;;;4950036;28;93800;-71
2023/04/02 10:13:16;;;;;;;1.60;0.35;;;22.10;45.00;;;;;;4948986;28;93935;-74
2023/04/02 10:15:51;;;;;;;2.45;0.93;;;24.00;44.10;;;;;;4964485;28;92202;-71
2023/04/02 10:18:36;;;;;;;1.02;0.20;;;27.00;40.30;;;;;;4971525;28;93134;-71
2023/04/02 10:21:04;;;;;;;1.17;0.77;;;25.90;39.50;;;;;;4951572;28;93222;-71
2023/04/02 10:23:31;;;;;;;0.82;0.25;;;24.40;40.40;;;;;;4967149;28;92227;-72
2023/04/02 10:26:24;;;;;;;1.35;0.38;;;23.40;42.50;;;;;;4963566;28;93052;-70
2023/04/02 10:29:15;;;;;;;1.52;0.30;;;23.90;43.30;;;;;;4951289;28;95349;-70
2023/04/02 10:31:43;;;;;;;0.93;0.20;;;23.40;43.30;;;;;;4963464;28;94196;-70
2023/04/02 10:34:23;;;;;;;2.03;0.20;;;23.40;43.50;;;;;;4953407;28;93802;-70
2023/04/02 10:36:53;;;;;;;0.80;0.40;;;22.90;43.90;;;;;;4952937;28;93746;-70
2023/04/02 10:39:19;;;;;;;1.98;0.38;;;22.40;43.60;;;;;;4958649;28;93890;-71
2023/04/02 10:41:55;;;;;;;1.10;0.20;;;21.90;45.00;;;;;;4958685;28;92816;-72
2023/04/02 10:44:43;;;;;;;1.05;0.20;;;21.40;45.50;;;;;;4954527;28;94155;-70
2023/04/02 10:47:26;;;;;;;0.82;0.13;;;20.90;47.00;;;;;;4955802;28;93507;-71
2023/04/02 10:50:10;;;;;;;1.10;0.17;;;20.70;47.50;;;;;;4956379;28;94084;-71
2023/04/02 10:52:44;;;;;;;0.82;0.38;;;20.50;46.40;;;;;;4952018;28;94442;-71
2023/04/02 10:55:24;;;;;;;1.08;0.10;;;20.30;49.10;;;;;;4955068;28;93960;-71
2023/04/02 10:57:53;;;;;;;1.83;0.20;;;20.00;47.30;;;;;;4950159;28;92957;-72
2023/04/02 11:00:24;;;;;;;0.52;0.10;;;19.60;48.20;;;;;;4951776;28;95468;-70
2023/04/02 11:03:08;;;;;;;1.40;0.20;;;19.60;49.80;;;;;;4953261;28;96186;-70
2023/04/02 11:05:42;;;;;;;1.45;0.10;;;19.50;50.10;;;;;;4953508;28;92571;-70
2023/04/02 11:08:19;;;;;;;1.00;0.30;;;19.50;49.20;;;;;;4956988;28;92956;-71
2023/04/02 11:11:17;;;;;;;1.02;0.10;;;19.20;51.10;;;;;;4960387;28;95490;-70
2023/04/02 11:14:01;;;;;;;1.10;0.28;;;19.30;50.70;;;;;;4955904;28;92844;-71
2023/04/02 11:16:27;;;;;;;1.77;0.22;;;19.30;50.50;;;;;;4954217;28;94028;-71
2023/04/02 11:19:14;;;;;;;2.17;0.40;;;19.20;51.20;;;;;;4968089;28;92344;-70
2023/04/02 11:21:41;;;;;;;0.80;0.22;;;19.20;51.30;;;;;;4965667;28;94562;-70
2023/04/02 11:24:23;;;;;;;0.93;0.30;;;19.00;48.90;;;;;;4969843;28;94312;-70
2023/04/02 11:26:50;;;;;;;1.05;0.20;;;19.40;52.00;;;;;;4962241;28;92850;-71
2023/04/02 11:29:26;;;;;;;0.73;0.20;;;19.50;48.50;;;;;;4964880;28;92633;-70
2023/04/02 11:32:20;;;;;;;0.75;0.10;;;19.60;50.40;;;;;;4966974;28;93888;-70
2023/04/02 11:34:46;;;;;;;1.40;0.20;;;20.00;49.30;;;;;;4961420;28;92478;-70
2023/04/02 11:37:44;;;;;;;0.80;0.13;;;19.90;49.70;;;;;;4980804;28;92577;-69
2023/04/02 11:40:13;;;;;;;1.55;0.22;;;19.80;49.40;;;;;;4957143;28;91526;-71
2023/04/02 11:42:45;;;;;;;1.30;0.20;;;19.50;48.10;;;;;;4963160;28;93431;-73
2023/04/02 11:45:20;;;;;;;1.38;0.15;;;19.30;52.30;;;;;;4962550;28;93582;-71
2023/04/02 11:48:00;;;;;;;1.27;0.10;;;19.30;50.90;;;;;;4963252;28;94690;-70
2023/04/02 11:50:45;;;;;;;1.95;0.20;;;19.00;49.80;;;;;;4975436;28;92383;-71
2023/04/02 11:53:11;;;;;;;0.88;0.10;;;18.50;50.00;;;;;;4970868;28;93221;-70
2023/04/02 11:55:41;;;;;;;0.65;0.10;;;18.20;51.10;;;;;;4965953;28;92105;-70
2023/04/02 11:58:34;;;;;;;2.08;0.10;;;18.10;52.20;;;;;;4985363;28;92407;-70
2023/04/02 12:01:19;;;;;;;1.17;0.10;;;18.10;55.10;;;;;;4964985;28;92311;-70
2023/04/02 12:04:15;;;;;;;0.55;0.03;;;17.80;52.20;;;;;;4973508;28;92806;-71
2023/04/02 12:07:33;;;;;;;1.85;0.20;;;17.70;52.80;;;;;;4965586;28;91702;-70
2023/04/02 12:10:04;;;;;;;0.40;0.10;;;17.80;53.70;;;;;;4954253;28;92207;-70
2023/04/02 12:12:37;;;;;;;1.65;0.40;;;17.50;56.30;;;;;;4959230;28;92310;-71
2023/04/02 12:15:27;;;;;;;0.65;0.08;;;17.50;56.20;;;;;;4957959;28;94497;-70
2023/04/02 12:18:10;;;;;;;2.40;0.10;;;17.50;52.30;;;;;;4963653;28;94323;-70
2023/04/02 12:20:36;;;;;;;;;;;17.40;53.50;;;;;;4976855;28;92440;-70
2023/04/02 12:23:03;;;;;;;0.55;0.10;;;17.40;54.80;;;;;;4975519;28;92913;-70
2023/04/02 12:25:33;;;;;;;1.52;0.10;;;17.40;57.10;;;;;;4970717;28;92306;-70
2023/04/02 12:28:13;;;;;;;1.13;0.10;;;17.50;57.70;;;;;;4972628;28;92630;-70
2023/04/02 12:30:40;;;;;;;0.88;0.10;;;17.20;53.20;;;;;;4974565;28;92674;-70
2023/04/02 12:33:24;;;;;;;1.20;0.10;;;17.00;53.30;;;;;;4974059;28;91422;-70
2023/04/02 12:35:56;;;;;;;0.70;0.10;;;16.90;54.40;;;;;;4974307;28;93245;-70
2023/04/02 12:38:31;;;;;;;0.60;0.10;;;16.80;54.80;;;;;;4970186;28;93176;-70
2023/04/02 12:41:02;;;;;;;0.95;0.20;;;16.60;55.60;;;;;;4971396;28;94967;-70
2023/04/02 12:43:29;;;;;;;0.70;0.10;;;16.50;56.20;;;;;;4967605;28;93175;-69
2023/04/02 12:45:58;;;;;;;0.40;0.10;;;16.50;54.20;;;;;;4978000;28;92501;-71
2023/04/02 12:48:26;;;;;;;0.32;0.00;;;16.60;54.70;;;;;;4971757;28;93376;-70
2023/04/02 12:50:52;;;;;;;0.55;0.10;;;16.70;53.60;;;;;;4971740;28;94610;-70
2023/04/02 12:53:22;;;;;;;1.92;0.15;;;16.70;56.20;;;;;;4973605;28;93557;-70
2023/04/02 12:55:50;;;;;;;1.25;0.10;;;16.80;59.40;;;;;;4964503;28;93769;-70
2023/04/02 12:58:33;;;;;;;1.08;0.10;;;16.90;55.90;;;;;;4982047;28;92936;-71
2023/04/02 13:01:14;;;;;;;0.75;0.10;;;16.80;55.50;;;;;;4966805;28;92429;-69
2023/04/02 13:03:40;;;;;;;2.22;0.10;;;16.60;54.10;;;;;;4971695;28;92591;-69
2023/04/02 13:06:33;;;;;;;2.05;0.20;;;16.60;57.40;;;;;;4965946;28;94254;-71
2023/04/02 13:09:05;;;;;;;1.02;0.00;;;16.70;57.00;;;;;;4967169;28;93266;-70
2023/04/02 13:11:39;;;;;;;1.05;0.08;;;16.90;57.50;;;;;;4976234;28;92045;-70
2023/04/02 13:14:25;;;;;;;0.32;0.10;;;17.10;57.30;;;;;;4972653;28;93034;-70
2023/04/02 13:16:51;;;;;;;0.43;0.00;;;17.10;56.30;;;;;;4966971;28;94971;-71
2023/04/02 13:19:29;;;;;;;0.77;0.03;;;17.10;56.40;;;;;;4970524;28;94218;-70
2023/04/02 13:21:56;;;;;;;0.55;0.10;;;17.10;57.00;;;;;;4969266;28;92601;-70
2023/04/02 13:24:30;;;;;;;1.40;0.13;;;17.10;56.80;;;;;;4969018;28;92496;-69
2023/04/02 13:27:01;;;;;;;2.88;0.20;;;17.20;56.60;;;;;;4973158;28;94217;-70
2023/04/02 13:29:34;;;;;;;1.00;0.10;;;16.80;55.80;;;;;;4966632;28;94604;-70
2023/04/02 13:32:03;;;;;;;0.35;0.00;;;16.40;56.30;;;;;;4968161;28;95461;-71
2023/04/02 13:34:29;;;;;;;0.70;0.10;;;16.10;56.00;;;;;;4968338;28;94166;-69
2023/04/02 13:36:56;;;;;;;0.73;0.10;;;15.80;57.40;;;;;;4969135;28;92717;-70